This is the latest recevied weather packets stored in our database for station/object KE5YIM-13. If no packets are shown the sender has not sent any weather packets the latest 1 day(s).
| Time | Temp. | Humidity | Pressure | Rain* | Wind** | Luminosity | Snow |
|---|---|---|---|---|---|---|---|
| 1778013091 | 21.11° C | 62% | 1009.9 hPa | 0 mm | 1.79 m/s, 141° | 432 W/m² | - |
| 1778012786 | 21.67° C | 62% | 1009.9 hPa | 0 mm | 2.24 m/s, 258° | 458 W/m² | - |
| 1778012482 | 21.67° C | 63% | 1010 hPa | 0 mm | 0.89 m/s, 93° | 484 W/m² | - |
| 1778012179 | 21.67° C | 62% | 1009.9 hPa | 0 mm | 1.79 m/s, 214° | 483 W/m² | - |
| 1778011877 | 21.11° C | 63% | 1009.9 hPa | 0 mm | 1.34 m/s, 132° | 518 W/m² | - |
| 1778011575 | 21.67° C | 62% | 1009.9 hPa | 0 mm | 2.24 m/s, 201° | 501 W/m² | - |
| 1778011271 | 21.11° C | 62% | 1010 hPa | 0 mm | 2.24 m/s, 275° | 505 W/m² | - |
| 1778010968 | 21.11° C | 63% | 1010 hPa | 0 mm | 1.34 m/s, 139° | 539 W/m² | - |
| 1778010665 | 21.67° C | 62% | 1010.3 hPa | 0 mm | 2.24 m/s, 242° | 559 W/m² | - |
| 1778010362 | 21.67° C | 61% | 1010 hPa | 0 mm | 2.24 m/s, 239° | 570 W/m² | - |
| 1778010058 | 21.67° C | 62% | 1010.2 hPa | 0 mm | 1.34 m/s, 185° | 585 W/m² | - |
| 1778009755 | 21.67° C | 61% | 1010.1 hPa | 0 mm | 1.34 m/s, 245° | 598 W/m² | - |
| 1778009452 | 21.67° C | 62% | 1010.3 hPa | 0 mm | 1.34 m/s, 112° | 625 W/m² | - |
| 1778009151 | 21.67° C | 62% | 1010.3 hPa | 0 mm | 1.79 m/s, 107° | 616 W/m² | - |
| 1778008848 | 21.67° C | 62% | 1010.5 hPa | 0 mm | 2.24 m/s, 305° | 629 W/m² | - |
| 1778008546 | 21.67° C | 62% | 1010.7 hPa | 0 mm | 2.24 m/s, 115° | 655 W/m² | - |
| 1778008244 | 21.67° C | 61% | 1010.4 hPa | 0 mm | 1.34 m/s, 243° | 665 W/m² | - |
| 1778007944 | 21.67° C | 63% | 1010.8 hPa | 0 mm | 1.34 m/s, 242° | 672 W/m² | - |
| 1778007640 | 21.67° C | 62% | 1010.7 hPa | 0 mm | 1.79 m/s, 90° | 682 W/m² | - |
| 1778007337 | 22.22° C | 61% | 1010.9 hPa | 0 mm | 3.13 m/s, 223° | 693 W/m² | - |
| 1778007033 | 21.67° C | 63% | 1010.8 hPa | 0 mm | 2.24 m/s, 236° | 704 W/m² | - |
| 1778006730 | 21.67° C | 63% | 1010.7 hPa | 0 mm | 1.34 m/s, 127° | 709 W/m² | - |
| 1778006427 | 21.67° C | 62% | 1010.9 hPa | 0 mm | 3.13 m/s, 175° | 721 W/m² | - |
| 1778006124 | 21.67° C | 62% | 1010.7 hPa | 0 mm | 3.13 m/s, 213° | 728 W/m² | - |
| 1778005821 | 21.11° C | 64% | 1010.8 hPa | 0 mm | 1.34 m/s, 68° | 737 W/m² | - |
* Rain latest hour (hover to see other rain measurements)
** Current wind speed in m/s (hover to see current wind gust speed)